Time;durP1;ratioP1;P1;durP2;ratioP2;P2;SDS_P1;SDS_P2;PMS_P1;PMS_P2;Temp;Humidity;BMP_temperature;BMP_pressure;BME280_temperature;BME280_humidity;BME280_pressure;Samples;Min_cycle;Max_cycle;Signal;HPM_P1;HPM_P2
2021/12/31 00:00:13;;;;;;;0.83;0.20;;;;;;;;;;5034635;28;20408;-66
2021/12/31 00:02:38;;;;;;;0.45;0.20;;;;;;;;;;5033258;28;20013;-66
2021/12/31 00:05:04;;;;;;;0.60;0.30;;;;;;;;;;5033959;28;20033;-65
2021/12/31 00:07:29;;;;;;;0.40;0.00;;;;;;;;;;5034407;28;20309;-66
2021/12/31 00:09:59;;;;;;;1.57;0.17;;;;;;;;;;5034191;28;20021;-66
2021/12/31 00:12:25;;;;;;;0.77;0.10;;;;;;;;;;5034313;28;20802;-66
2021/12/31 00:14:50;;;;;;;0.22;0.10;;;;;;;;;;5034139;28;20060;-66
2021/12/31 00:17:15;;;;;;;0.70;0.13;;;;;;;;;;5034194;28;20481;-66
2021/12/31 00:19:44;;;;;;;0.57;0.20;;;;;;;;;;5032820;28;20076;-65
2021/12/31 00:24:53;;;;;;;0.50;0.20;;;;;;;;;;5033845;28;20527;-66
2021/12/31 00:27:18;;;;;;;0.50;0.20;;;;;;;;;;5033958;28;20022;-65
2021/12/31 00:29:43;;;;;;;1.25;0.25;;;;;;;;;;5033989;28;20140;-66
2021/12/31 00:32:09;;;;;;;0.20;0.00;;;;;;;;;;5033901;28;20049;-65
2021/12/31 00:34:34;;;;;;;0.60;0.10;;;;;;;;;;5033832;28;20032;-65
2021/12/31 00:36:59;;;;;;;0.20;0.10;;;;;;;;;;5033675;28;20544;-65
2021/12/31 00:39:24;;;;;;;0.40;0.10;;;;;;;;;;5033831;28;20258;-65
2021/12/31 00:41:49;;;;;;;0.03;0.00;;;;;;;;;;5032234;28;20388;-66
2021/12/31 00:44:14;;;;;;;1.30;0.20;;;;;;;;;;5032666;28;20033;-65
2021/12/31 00:46:40;;;;;;;0.43;0.20;;;;;;;;;;5033578;28;20048;-65
2021/12/31 00:49:06;;;;;;;0.10;0.05;;;;;;;;;;5033461;28;20254;-65
2021/12/31 00:51:31;;;;;;;0.73;0.20;;;;;;;;;;5033557;28;20029;-66
2021/12/31 00:53:57;;;;;;;0.50;0.10;;;;;;;;;;5033406;28;20021;-66
2021/12/31 00:56:22;;;;;;;0.50;0.10;;;;;;;;;;5033474;28;20021;-66
2021/12/31 00:58:47;;;;;;;1.13;0.28;;;;;;;;;;5033502;28;20475;-65
2021/12/31 01:01:19;;;;;;;0.45;0.10;;;;;;;;;;5033310;28;20026;-66
2021/12/31 01:03:45;;;;;;;0.50;0.10;;;;;;;;;;5033332;28;20025;-66
2021/12/31 01:06:10;;;;;;;0.57;0.20;;;;;;;;;;5033416;28;20132;-66
2021/12/31 01:08:35;;;;;;;0.30;0.00;;;;;;;;;;5033186;28;20069;-66
2021/12/31 01:11:00;;;;;;;0.30;0.10;;;;;;;;;;5032960;28;20247;-66
2021/12/31 01:13:34;;;;;;;0.38;0.10;;;;;;;;;;5033244;28;20349;-66
2021/12/31 01:16:01;;;;;;;0.50;0.10;;;;;;;;;;5032967;28;20491;-66
2021/12/31 01:19:44;;;;;;;1.80;0.20;;;;;;;;;;5031725;28;20029;-66
2021/12/31 01:21:11;;;;;;;0.20;0.20;;;;;;;;;;5032774;28;20116;-65
2021/12/31 01:23:36;;;;;;;0.27;0.10;;;;;;;;;;5032928;28;20112;-66
2021/12/31 01:26:03;;;;;;;0.80;0.20;;;;;;;;;;5032454;28;20025;-65
2021/12/31 01:28:28;;;;;;;1.15;0.10;;;;;;;;;;5032847;28;20025;-65
2021/12/31 01:30:53;;;;;;;0.50;0.17;;;;;;;;;;5032791;28;20488;-65
2021/12/31 01:33:18;;;;;;;0.30;0.20;;;;;;;;;;5032697;28;20021;-66
2021/12/31 01:35:44;;;;;;;0.30;0.10;;;;;;;;;;5032757;28;20064;-67
2021/12/31 01:38:09;;;;;;;0.73;0.27;;;;;;;;;;5032808;28;20254;-66
2021/12/31 01:40:34;;;;;;;0.20;0.05;;;;;;;;;;5032652;28;20704;-66
2021/12/31 01:42:59;;;;;;;1.95;0.43;;;;;;;;;;5021344;28;20028;-66
2021/12/31 01:45:29;;;;;;;0.13;0.10;;;;;;;;;;5012933;28;20022;-66
2021/12/31 01:50:19;;;;;;;0.20;0.10;;;;;;;;;;5013230;28;20021;-66
2021/12/31 01:52:45;;;;;;;0.85;0.30;;;;;;;;;;5011405;28;20030;-66
2021/12/31 01:55:11;;;;;;;0.43;0.20;;;;;;;;;;5012390;28;20377;-65
2021/12/31 01:57:36;;;;;;;0.45;0.15;;;;;;;;;;5012699;28;20785;-67
2021/12/31 02:00:02;;;;;;;0.75;0.32;;;;;;;;;;5012507;28;20022;-66
2021/12/31 02:02:27;;;;;;;0.10;0.03;;;;;;;;;;5012555;28;20026;-66
2021/12/31 02:04:53;;;;;;;1.27;0.27;;;;;;;;;;5012241;28;20037;-66
2021/12/31 02:07:19;;;;;;;0.50;0.20;;;;;;;;;;5012789;28;20423;-66
2021/12/31 02:09:49;;;;;;;0.30;0.10;;;;;;;;;;5012814;28;20036;-66
2021/12/31 02:12:14;;;;;;;1.15;0.20;;;;;;;;;;5012927;28;20371;-65
2021/12/31 02:14:39;;;;;;;2.42;0.15;;;;;;;;;;5012442;28;20026;-66
2021/12/31 02:17:09;;;;;;;0.60;0.20;;;;;;;;;;5012400;28;20445;-65
2021/12/31 02:19:35;;;;;;;0.73;0.10;;;;;;;;;;5012531;28;20565;-65
2021/12/31 02:22:00;;;;;;;0.50;0.30;;;;;;;;;;5012361;28;20117;-66
2021/12/31 02:24:26;;;;;;;0.68;0.10;;;;;;;;;;5019608;28;20018;-65
2021/12/31 02:26:51;;;;;;;0.25;0.25;;;;;;;;;;5032117;28;20427;-65
2021/12/31 02:29:16;;;;;;;0.65;0.15;;;;;;;;;;5032093;28;20380;-66
2021/12/31 02:31:42;;;;;;;0.20;0.10;;;;;;;;;;5032056;28;20108;-66
2021/12/31 02:34:07;;;;;;;0.45;0.38;;;;;;;;;;5031984;28;20018;-66
2021/12/31 02:36:32;;;;;;;0.37;0.10;;;;;;;;;;5032017;28;20105;-66
2021/12/31 02:38:57;;;;;;;0.32;0.08;;;;;;;;;;5031855;28;20262;-66
2021/12/31 02:41:22;;;;;;;0.77;0.20;;;;;;;;;;5032057;28;20091;-66
2021/12/31 02:43:47;;;;;;;0.95;0.30;;;;;;;;;;5030473;28;20269;-65
2021/12/31 02:46:13;;;;;;;0.20;0.10;;;;;;;;;;5031884;28;20025;-66
2021/12/31 02:48:38;;;;;;;1.13;0.03;;;;;;;;;;5030658;28;20022;-66
2021/12/31 02:51:04;;;;;;;0.60;0.30;;;;;;;;;;5031816;28;20045;-66
2021/12/31 02:53:39;;;;;;;0.40;0.20;;;;;;;;;;5032044;28;20026;-66
2021/12/31 02:56:06;;;;;;;0.88;0.32;;;;;;;;;;5031727;28;20037;-65
2021/12/31 02:58:32;;;;;;;0.75;0.13;;;;;;;;;;5031826;28;20065;-65
2021/12/31 03:00:58;;;;;;;0.40;0.20;;;;;;;;;;5031602;28;20018;-66
2021/12/31 03:03:24;;;;;;;0.73;0.20;;;;;;;;;;5031889;28;20029;-65
2021/12/31 03:05:50;;;;;;;0.68;0.20;;;;;;;;;;5031422;28;20291;-65
2021/12/31 03:08:17;;;;;;;0.40;0.10;;;;;;;;;;5033476;28;20107;-65
2021/12/31 03:10:42;;;;;;;0.43;0.20;;;;;;;;;;5035303;28;20453;-66
2021/12/31 03:13:09;;;;;;;1.65;0.20;;;;;;;;;;5035640;28;20045;-66
2021/12/31 03:15:34;;;;;;;0.60;0.20;;;;;;;;;;5035427;28;20018;-65
2021/12/31 03:18:03;;;;;;;0.57;0.10;;;;;;;;;;5035208;28;20114;-66
2021/12/31 03:20:36;;;;;;;0.30;0.03;;;;;;;;;;5035237;28;20036;-65
2021/12/31 03:23:02;;;;;;;1.23;0.30;;;;;;;;;;5035100;28;20105;-66
2021/12/31 03:25:27;;;;;;;0.70;0.10;;;;;;;;;;5035108;28;20108;-65
2021/12/31 03:27:52;;;;;;;1.23;0.40;;;;;;;;;;5035041;28;20052;-66
2021/12/31 03:30:18;;;;;;;0.50;0.30;;;;;;;;;;5033812;28;20338;-66
2021/12/31 03:32:43;;;;;;;0.20;0.20;;;;;;;;;;5034915;28;20255;-67
2021/12/31 03:35:08;;;;;;;0.40;0.20;;;;;;;;;;5034932;28;20029;-66
2021/12/31 03:37:34;;;;;;;0.40;0.20;;;;;;;;;;5035021;28;20269;-66
2021/12/31 03:39:59;;;;;;;0.20;0.17;;;;;;;;;;5034836;28;20032;-66
2021/12/31 03:42:24;;;;;;;1.23;0.08;;;;;;;;;;5034751;28;20026;-67
2021/12/31 03:44:49;;;;;;;0.83;0.10;;;;;;;;;;5034592;28;20069;-65
2021/12/31 03:47:14;;;;;;;0.63;0.10;;;;;;;;;;5034752;28;20254;-65
2021/12/31 03:49:40;;;;;;;1.27;0.32;;;;;;;;;;5034716;28;20025;-65
2021/12/31 03:52:05;;;;;;;0.70;0.17;;;;;;;;;;5034672;28;20245;-65
2021/12/31 03:54:30;;;;;;;0.38;0.20;;;;;;;;;;5034593;28;20258;-66
2021/12/31 03:56:55;;;;;;;0.43;0.10;;;;;;;;;;5034401;28;20414;-65
2021/12/31 03:59:20;;;;;;;0.40;0.00;;;;;;;;;;5034579;28;20479;-65
2021/12/31 04:01:46;;;;;;;1.73;0.20;;;;;;;;;;5034470;28;20246;-66
2021/12/31 04:04:12;;;;;;;1.40;0.10;;;;;;;;;;5034290;28;20021;-65
2021/12/31 04:06:37;;;;;;;0.55;0.10;;;;;;;;;;5032957;28;20031;-65
2021/12/31 04:09:03;;;;;;;0.10;0.10;;;;;;;;;;5034367;28;20013;-65
2021/12/31 04:11:28;;;;;;;0.32;0.10;;;;;;;;;;5034269;28;20056;-66
2021/12/31 04:13:53;;;;;;;0.73;0.15;;;;;;;;;;5034124;28;20457;-65
2021/12/31 04:16:18;;;;;;;1.10;0.10;;;;;;;;;;5034231;28;20486;-66
2021/12/31 04:18:43;;;;;;;0.20;0.10;;;;;;;;;;5033775;28;20037;-65
2021/12/31 04:21:09;;;;;;;0.95;0.28;;;;;;;;;;5034183;28;20255;-65
2021/12/31 04:23:47;;;;;;;0.17;0.00;;;;;;;;;;5034026;28;20108;-66
2021/12/31 04:26:12;;;;;;;0.60;0.20;;;;;;;;;;5032708;28;20446;-66
2021/12/31 04:28:37;;;;;;;0.30;0.10;;;;;;;;;;5033935;28;20045;-66
2021/12/31 04:31:04;;;;;;;0.43;0.10;;;;;;;;;;5034028;28;20289;-66
2021/12/31 04:33:29;;;;;;;1.67;0.10;;;;;;;;;;5033993;28;20021;-67
2021/12/31 04:35:54;;;;;;;0.10;0.10;;;;;;;;;;5034004;28;20187;-66
2021/12/31 04:38:19;;;;;;;0.32;0.10;;;;;;;;;;5033800;28;20262;-66
2021/12/31 04:40:44;;;;;;;0.32;0.13;;;;;;;;;;5033635;28;20029;-65
2021/12/31 04:43:10;;;;;;;0.93;0.10;;;;;;;;;;5033611;28;20100;-65
2021/12/31 04:45:35;;;;;;;0.10;0.10;;;;;;;;;;5033911;28;20324;-65
2021/12/31 04:48:01;;;;;;;1.57;0.20;;;;;;;;;;5033556;28;20021;-66
2021/12/31 04:50:26;;;;;;;0.52;0.10;;;;;;;;;;5033818;28;20251;-66
2021/12/31 04:52:51;;;;;;;1.13;0.30;;;;;;;;;;5033411;28;20361;-65
2021/12/31 04:55:17;;;;;;;0.52;0.15;;;;;;;;;;5033523;28;20316;-66
2021/12/31 04:57:47;;;;;;;0.20;0.10;;;;;;;;;;5033705;28;20039;-65
2021/12/31 05:00:14;;;;;;;0.32;0.00;;;;;;;;;;5033451;28;20025;-65
2021/12/31 05:02:39;;;;;;;1.17;0.22;;;;;;;;;;5033223;28;20017;-65
2021/12/31 05:05:04;;;;;;;0.30;0.10;;;;;;;;;;5032998;28;20046;-65
2021/12/31 05:07:30;;;;;;;0.77;0.22;;;;;;;;;;5033295;28;20610;-65
2021/12/31 05:09:55;;;;;;;1.20;0.10;;;;;;;;;;5033106;28;20416;-66
2021/12/31 05:12:25;;;;;;;1.25;0.20;;;;;;;;;;5033181;28;20026;-65
2021/12/31 05:14:51;;;;;;;1.48;0.20;;;;;;;;;;5033028;28;20052;-65
2021/12/31 05:17:16;;;;;;;0.40;0.20;;;;;;;;;;5033202;28;20484;-66
2021/12/31 05:19:45;;;;;;;0.20;0.10;;;;;;;;;;5033049;28;20520;-66
2021/12/31 05:22:11;;;;;;;0.50;0.20;;;;;;;;;;5033038;28;20021;-65
2021/12/31 05:24:36;;;;;;;0.15;0.15;;;;;;;;;;5032850;28;20035;-65
2021/12/31 05:27:01;;;;;;;0.52;0.10;;;;;;;;;;5032803;28;20021;-65
2021/12/31 05:29:26;;;;;;;0.52;0.20;;;;;;;;;;5033214;28;20445;-65
2021/12/31 05:31:52;;;;;;;0.60;0.38;;;;;;;;;;5032152;28;20014;-65
2021/12/31 05:34:17;;;;;;;0.30;0.10;;;;;;;;;;5032791;28;20453;-65
2021/12/31 05:36:42;;;;;;;0.30;0.10;;;;;;;;;;5032706;28;20033;-65
2021/12/31 05:39:07;;;;;;;1.70;0.70;;;;;;;;;;5031377;28;20025;-65
2021/12/31 05:41:34;;;;;;;0.50;0.10;;;;;;;;;;5032768;28;20641;-65
2021/12/31 05:43:59;;;;;;;0.75;0.13;;;;;;;;;;5032500;28;20269;-65
2021/12/31 05:46:24;;;;;;;0.55;0.10;;;;;;;;;;5032574;28;20025;-65
2021/12/31 05:48:50;;;;;;;0.20;0.17;;;;;;;;;;5032733;28;20040;-65
2021/12/31 05:51:15;;;;;;;0.15;0.10;;;;;;;;;;5032613;28;20246;-65
2021/12/31 05:53:40;;;;;;;0.35;0.20;;;;;;;;;;5032557;28;20092;-65
2021/12/31 05:56:05;;;;;;;0.97;0.10;;;;;;;;;;5032450;28;20473;-65
2021/12/31 05:58:30;;;;;;;0.45;0.20;;;;;;;;;;5032450;28;20255;-65
2021/12/31 06:00:55;;;;;;;0.20;0.10;;;;;;;;;;5032281;28;20468;-66
2021/12/31 06:03:20;;;;;;;0.83;0.20;;;;;;;;;;5032326;28;20025;-65
2021/12/31 06:05:47;;;;;;;1.27;0.10;;;;;;;;;;5032066;28;20290;-65
2021/12/31 06:08:12;;;;;;;0.38;0.03;;;;;;;;;;5032647;28;20014;-65
2021/12/31 06:10:40;;;;;;;0.50;0.20;;;;;;;;;;5032242;28;20032;-65
2021/12/31 06:13:06;;;;;;;0.25;0.10;;;;;;;;;;5032318;28;20243;-66
2021/12/31 06:15:32;;;;;;;0.52;0.15;;;;;;;;;;5032338;28;20029;-65
2021/12/31 06:17:58;;;;;;;0.55;0.17;;;;;;;;;;5032122;28;20440;-66
2021/12/31 06:20:24;;;;;;;0.47;0.10;;;;;;;;;;5032240;28;20504;-65
2021/12/31 06:22:49;;;;;;;0.43;0.20;;;;;;;;;;5032020;28;20250;-65
2021/12/31 06:25:14;;;;;;;0.90;0.30;;;;;;;;;;5032354;28;20487;-65
2021/12/31 06:27:39;;;;;;;0.10;0.03;;;;;;;;;;5032128;28;20247;-65
2021/12/31 06:30:05;;;;;;;0.00;0.00;;;;;;;;;;5032413;28;20814;-66
2021/12/31 06:32:30;;;;;;;0.45;0.10;;;;;;;;;;5032054;28;20528;-65
2021/12/31 06:34:55;;;;;;;1.45;0.05;;;;;;;;;;5031886;28;20435;-65
2021/12/31 06:37:21;;;;;;;0.50;0.40;;;;;;;;;;5032084;28;20056;-65
2021/12/31 06:39:47;;;;;;;0.20;0.10;;;;;;;;;;5031988;28;20076;-64
2021/12/31 06:42:12;;;;;;;0.88;0.15;;;;;;;;;;5033622;28;20254;-65
2021/12/31 06:44:37;;;;;;;0.52;0.10;;;;;;;;;;5035806;28;20025;-65
2021/12/31 06:47:03;;;;;;;0.40;0.20;;;;;;;;;;5035750;28;20025;-64
2021/12/31 06:49:28;;;;;;;0.63;0.15;;;;;;;;;;5035983;28;20056;-65
2021/12/31 06:51:53;;;;;;;0.70;0.30;;;;;;;;;;5035726;28;20025;-65
2021/12/31 06:54:19;;;;;;;0.65;0.30;;;;;;;;;;5035845;28;20035;-64
2021/12/31 06:56:44;;;;;;;1.15;0.13;;;;;;;;;;5035600;28;20484;-65
2021/12/31 06:59:09;;;;;;;0.20;0.00;;;;;;;;;;5035664;28;20037;-65
2021/12/31 07:01:34;;;;;;;0.27;0.17;;;;;;;;;;5035698;28;20250;-65
2021/12/31 07:03:59;;;;;;;0.67;0.37;;;;;;;;;;5035490;28;20308;-65
2021/12/31 07:06:24;;;;;;;0.30;0.20;;;;;;;;;;5035352;28;20287;-65
2021/12/31 07:08:50;;;;;;;0.95;0.30;;;;;;;;;;5035395;28;20243;-65
2021/12/31 07:11:17;;;;;;;1.02;0.20;;;;;;;;;;5035469;28;20028;-65
2021/12/31 07:13:42;;;;;;;2.05;0.38;;;;;;;;;;5034224;28;20044;-66
2021/12/31 07:16:07;;;;;;;1.20;0.35;;;;;;;;;;5035402;28;20457;-65
2021/12/31 07:18:32;;;;;;;1.38;0.38;;;;;;;;;;5035315;28;20072;-65
2021/12/31 07:20:57;;;;;;;0.35;0.30;;;;;;;;;;5035078;28;20053;-65
2021/12/31 07:23:23;;;;;;;1.33;0.25;;;;;;;;;;5035278;28;20029;-65
2021/12/31 07:25:48;;;;;;;0.68;0.20;;;;;;;;;;5034965;28;20029;-65
2021/12/31 07:28:14;;;;;;;0.20;0.10;;;;;;;;;;5035223;28;20049;-65
2021/12/31 07:30:39;;;;;;;0.63;0.10;;;;;;;;;;5035028;28;20033;-65
2021/12/31 07:33:05;;;;;;;1.38;0.20;;;;;;;;;;5035233;28;20397;-65
2021/12/31 07:35:31;;;;;;;0.32;0.10;;;;;;;;;;5035089;28;20052;-65
2021/12/31 07:37:56;;;;;;;3.30;0.52;;;;;;;;;;5034907;28;20024;-64
2021/12/31 07:40:33;;;;;;;0.40;0.20;;;;;;;;;;5035231;28;20029;-64
2021/12/31 07:42:58;;;;;;;0.88;0.10;;;;;;;;;;5034658;28;20017;-64
2021/12/31 07:45:23;;;;;;;0.30;0.30;;;;;;;;;;5034856;28;20031;-65
2021/12/31 07:47:48;;;;;;;1.60;0.20;;;;;;;;;;5034677;28;20469;-65
2021/12/31 07:50:14;;;;;;;0.65;0.10;;;;;;;;;;5034803;28;20245;-65
2021/12/31 07:52:40;;;;;;;0.70;0.13;;;;;;;;;;5034657;28;20014;-65
2021/12/31 07:55:05;;;;;;;0.53;0.20;;;;;;;;;;5034005;28;20487;-65
2021/12/31 07:57:30;;;;;;;0.75;0.20;;;;;;;;;;5034604;28;20246;-66
2021/12/31 07:59:55;;;;;;;1.23;0.20;;;;;;;;;;5034546;28;20026;-65
2021/12/31 08:02:20;;;;;;;0.50;0.10;;;;;;;;;;5034550;28;20381;-66
2021/12/31 08:04:45;;;;;;;0.93;0.20;;;;;;;;;;5032817;28;20072;-65
2021/12/31 08:07:11;;;;;;;1.38;0.30;;;;;;;;;;5034374;28;20052;-65
2021/12/31 08:09:36;;;;;;;1.70;0.20;;;;;;;;;;5034530;28;20383;-65
2021/12/31 08:12:01;;;;;;;0.82;0.25;;;;;;;;;;5034243;28;20247;-65
2021/12/31 08:14:26;;;;;;;1.30;0.22;;;;;;;;;;5034259;28;20025;-66
2021/12/31 08:16:51;;;;;;;0.30;0.20;;;;;;;;;;5034146;28;20029;-66
2021/12/31 08:19:17;;;;;;;0.80;0.20;;;;;;;;;;5034438;28;20253;-65
2021/12/31 08:21:42;;;;;;;1.50;0.13;;;;;;;;;;5034473;28;20014;-65
2021/12/31 08:24:07;;;;;;;0.40;0.05;;;;;;;;;;5034013;28;20325;-65
2021/12/31 08:26:32;;;;;;;0.83;0.10;;;;;;;;;;5034003;28;20029;-65
2021/12/31 08:28:57;;;;;;;0.40;0.10;;;;;;;;;;5033861;28;20024;-65
2021/12/31 08:31:22;;;;;;;1.13;0.15;;;;;;;;;;5034147;28;20251;-65
2021/12/31 08:33:48;;;;;;;0.70;0.10;;;;;;;;;;5032745;28;20376;-65
2021/12/31 08:36:13;;;;;;;0.13;0.10;;;;;;;;;;5033976;28;20243;-65
2021/12/31 08:38:38;;;;;;;0.10;0.03;;;;;;;;;;5032552;28;20285;-64
2021/12/31 08:41:03;;;;;;;0.35;0.20;;;;;;;;;;5033636;28;20048;-65
2021/12/31 08:43:28;;;;;;;0.47;0.10;;;;;;;;;;5033733;28;20017;-65
2021/12/31 08:45:54;;;;;;;1.03;0.40;;;;;;;;;;5033555;28;20014;-65
2021/12/31 08:48:19;;;;;;;0.35;0.10;;;;;;;;;;5033699;28;20761;-65
2021/12/31 08:50:44;;;;;;;1.08;0.10;;;;;;;;;;5033462;28;20493;-65
2021/12/31 08:53:10;;;;;;;0.60;0.10;;;;;;;;;;5033491;28;20021;-65
2021/12/31 08:55:35;;;;;;;0.30;0.10;;;;;;;;;;5033649;28;20040;-65
2021/12/31 08:58:00;;;;;;;0.20;0.10;;;;;;;;;;5032137;28;20025;-65
2021/12/31 09:00:25;;;;;;;1.83;0.10;;;;;;;;;;5033466;28;20034;-66
2021/12/31 09:02:51;;;;;;;1.20;0.10;;;;;;;;;;5033271;28;20037;-65
2021/12/31 09:05:16;;;;;;;1.10;0.10;;;;;;;;;;5031097;28;20326;-65
2021/12/31 09:07:41;;;;;;;0.50;0.10;;;;;;;;;;5033288;28;20029;-66
2021/12/31 09:10:08;;;;;;;0.47;0.20;;;;;;;;;;5033534;28;20475;-66
2021/12/31 09:12:33;;;;;;;1.10;0.38;;;;;;;;;;5033212;28;20257;-65
2021/12/31 09:14:58;;;;;;;1.38;0.22;;;;;;;;;;5033246;28;20026;-65
2021/12/31 09:17:24;;;;;;;0.63;0.30;;;;;;;;;;5033175;28;20022;-66
2021/12/31 09:19:49;;;;;;;0.77;0.10;;;;;;;;;;5031655;28;20017;-64
2021/12/31 09:22:15;;;;;;;0.13;0.10;;;;;;;;;;5033077;28;20301;-64
2021/12/31 09:24:40;;;;;;;0.20;0.10;;;;;;;;;;5032710;28;20064;-64
2021/12/31 09:27:05;;;;;;;0.47;0.30;;;;;;;;;;5032925;28;20017;-65
2021/12/31 09:29:30;;;;;;;0.20;0.10;;;;;;;;;;5032378;28;20033;-64
2021/12/31 09:31:55;;;;;;;0.20;0.00;;;;;;;;;;5033067;28;20036;-65
2021/12/31 09:34:21;;;;;;;0.70;0.20;;;;;;;;;;5032798;28;20377;-65
2021/12/31 09:36:46;;;;;;;0.80;0.10;;;;;;;;;;5032710;28;20030;-66
2021/12/31 09:39:11;;;;;;;1.13;0.10;;;;;;;;;;5032674;28;20270;-65
2021/12/31 09:41:36;;;;;;;0.30;0.00;;;;;;;;;;5032737;28;20064;-65
2021/12/31 09:44:02;;;;;;;0.77;0.10;;;;;;;;;;5032532;28;20492;-65
2021/12/31 09:46:27;;;;;;;1.05;0.30;;;;;;;;;;5032758;28;20342;-65
2021/12/31 09:48:52;;;;;;;0.30;0.10;;;;;;;;;;5032559;28;20048;-65
2021/12/31 09:51:18;;;;;;;0.60;0.10;;;;;;;;;;5032560;28;20029;-65
2021/12/31 09:53:43;;;;;;;0.85;0.10;;;;;;;;;;5032586;28;20093;-65
2021/12/31 09:56:08;;;;;;;0.75;0.30;;;;;;;;;;5032458;28;20457;-65
2021/12/31 09:58:35;;;;;;;0.20;0.15;;;;;;;;;;5032439;28;20036;-65
2021/12/31 10:01:01;;;;;;;0.28;0.10;;;;;;;;;;5032257;28;20377;-66
2021/12/31 10:03:28;;;;;;;0.77;0.10;;;;;;;;;;5032395;28;20025;-65
2021/12/31 10:05:59;;;;;;;0.55;0.10;;;;;;;;;;5032074;28;20560;-65
2021/12/31 10:08:26;;;;;;;1.17;0.30;;;;;;;;;;5032281;28;20462;-66
2021/12/31 10:11:03;;;;;;;0.98;0.20;;;;;;;;;;5032213;28;20024;-64
2021/12/31 10:13:28;;;;;;;0.10;0.10;;;;;;;;;;5032386;28;20068;-65
2021/12/31 10:15:54;;;;;;;0.20;0.10;;;;;;;;;;5032201;28;20025;-65
2021/12/31 10:18:19;;;;;;;0.45;0.22;;;;;;;;;;5032045;28;20029;-65
2021/12/31 10:20:49;;;;;;;1.08;0.20;;;;;;;;;;5032381;28;20025;-65
2021/12/31 10:23:15;;;;;;;0.52;0.10;;;;;;;;;;5032165;28;20428;-65
2021/12/31 10:25:40;;;;;;;0.30;0.08;;;;;;;;;;5032066;28;20049;-65
2021/12/31 10:28:10;;;;;;;0.63;0.20;;;;;;;;;;5031156;28;20060;-66
2021/12/31 10:30:35;;;;;;;1.65;0.20;;;;;;;;;;5031998;28;20026;-66
2021/12/31 10:33:00;;;;;;;1.40;0.20;;;;;;;;;;5031918;28;20351;-66
2021/12/31 10:35:25;;;;;;;0.40;0.30;;;;;;;;;;5032130;28;20246;-65
2021/12/31 10:37:58;;;;;;;0.20;0.17;;;;;;;;;;5030679;28;20285;-64
2021/12/31 10:40:36;;;;;;;0.60;0.10;;;;;;;;;;5032108;28;20598;-65
2021/12/31 10:43:09;;;;;;;0.38;0.20;;;;;;;;;;5031792;28;20021;-65
2021/12/31 10:45:34;;;;;;;0.75;0.20;;;;;;;;;;5032004;28;20022;-64
2021/12/31 10:48:09;;;;;;;0.75;0.10;;;;;;;;;;5031842;28;20021;-65
2021/12/31 10:50:35;;;;;;;0.15;0.10;;;;;;;;;;5030714;28;20013;-66
2021/12/31 10:53:10;;;;;;;0.05;0.00;;;;;;;;;;5031797;28;20014;-66
2021/12/31 10:55:39;;;;;;;0.35;0.15;;;;;;;;;;5032275;28;20025;-65
2021/12/31 10:58:05;;;;;;;0.30;0.13;;;;;;;;;;5032009;28;20067;-65
2021/12/31 11:00:32;;;;;;;0.60;0.10;;;;;;;;;;5031910;28;20025;-65
2021/12/31 11:02:58;;;;;;;0.73;0.15;;;;;;;;;;5031738;28;20021;-65
2021/12/31 11:05:23;;;;;;;0.20;0.20;;;;;;;;;;5031822;28;20042;-65
2021/12/31 11:07:50;;;;;;;0.35;0.10;;;;;;;;;;5031703;28;20523;-65
2021/12/31 11:10:15;;;;;;;0.43;0.10;;;;;;;;;;5031865;28;20400;-66
2021/12/31 11:12:45;;;;;;;1.02;0.38;;;;;;;;;;5031674;28;20024;-66
2021/12/31 11:15:11;;;;;;;0.20;0.10;;;;;;;;;;5031704;28;20028;-65
2021/12/31 11:17:36;;;;;;;0.35;0.00;;;;;;;;;;5031794;28;20022;-66
2021/12/31 11:20:04;;;;;;;0.35;0.00;;;;;;;;;;5031667;28;20032;-66
2021/12/31 11:22:30;;;;;;;1.25;0.38;;;;;;;;;;5031631;28;20048;-65
2021/12/31 11:25:14;;;;;;;0.35;0.13;;;;;;;;;;5031430;28;20436;-65
2021/12/31 11:27:44;;;;;;;0.65;0.20;;;;;;;;;;5030338;28;20020;-65
2021/12/31 11:30:23;;;;;;;0.52;0.10;;;;;;;;;;5034580;28;20100;-65
2021/12/31 11:32:54;;;;;;;0.77;0.20;;;;;;;;;;5034854;28;20045;-65
2021/12/31 11:35:28;;;;;;;0.40;0.10;;;;;;;;;;5035325;28;20018;-65
2021/12/31 11:37:53;;;;;;;0.50;0.10;;;;;;;;;;5033648;28;20025;-65
2021/12/31 11:40:25;;;;;;;0.55;0.10;;;;;;;;;;5035012;28;20037;-65
2021/12/31 11:43:19;;;;;;;1.30;0.30;;;;;;;;;;5034865;28;20060;-65
2021/12/31 11:46:04;;;;;;;0.10;0.05;;;;;;;;;;5033299;28;20037;-66
2021/12/31 11:48:48;;;;;;;0.03;0.00;;;;;;;;;;5034598;28;20033;-65
2021/12/31 11:51:17;;;;;;;0.30;0.13;;;;;;;;;;5034823;28;20041;-64
2021/12/31 11:54:06;;;;;;;0.90;0.20;;;;;;;;;;5034743;28;20014;-65
2021/12/31 11:56:45;;;;;;;1.25;0.20;;;;;;;;;;5025410;28;20033;-65
2021/12/31 11:59:10;;;;;;;0.43;0.15;;;;;;;;;;5034548;28;20551;-65
2021/12/31 12:01:35;;;;;;;0.28;0.10;;;;;;;;;;5034649;28;20505;-65
2021/12/31 12:04:19;;;;;;;1.00;0.40;;;;;;;;;;5034564;28;20482;-66
2021/12/31 12:06:50;;;;;;;0.52;0.10;;;;;;;;;;5034384;28;20327;-66
2021/12/31 12:09:15;;;;;;;0.30;0.10;;;;;;;;;;5034410;28;20033;-65
2021/12/31 12:11:59;;;;;;;0.93;0.10;;;;;;;;;;5033138;28;20461;-66
2021/12/31 12:14:28;;;;;;;0.82;0.10;;;;;;;;;;5033144;28;20258;-65
2021/12/31 12:16:59;;;;;;;0.35;0.10;;;;;;;;;;5032980;28;20032;-65
2021/12/31 12:19:43;;;;;;;0.13;0.13;;;;;;;;;;5034288;28;20025;-65
2021/12/31 12:22:08;;;;;;;0.65;0.17;;;;;;;;;;5034512;28;20028;-65
2021/12/31 12:24:34;;;;;;;1.05;0.10;;;;;;;;;;5034107;28;20033;-65
2021/12/31 12:27:02;;;;;;;1.10;0.30;;;;;;;;;;5033839;28;20461;-65
2021/12/31 12:29:27;;;;;;;1.70;0.13;;;;;;;;;;5034092;28;20508;-65
2021/12/31 12:32:08;;;;;;;0.57;0.10;;;;;;;;;;5033935;28;20017;-66
2021/12/31 12:34:33;;;;;;;0.40;0.10;;;;;;;;;;5033957;28;20521;-65
2021/12/31 12:36:58;;;;;;;1.70;0.17;;;;;;;;;;5033712;28;20104;-65
2021/12/31 12:39:24;;;;;;;0.50;0.13;;;;;;;;;;5033844;28;20104;-65
2021/12/31 12:41:49;;;;;;;0.47;0.10;;;;;;;;;;5033694;28;20507;-66
2021/12/31 12:44:16;;;;;;;1.02;0.10;;;;;;;;;;5033870;28;20399;-65
2021/12/31 12:46:52;;;;;;;0.70;0.15;;;;;;;;;;5033556;28;20078;-65
2021/12/31 12:49:18;;;;;;;0.20;0.10;;;;;;;;;;5033688;28;20022;-65
2021/12/31 12:51:43;;;;;;;0.57;0.20;;;;;;;;;;5033612;28;20018;-65
2021/12/31 12:54:11;;;;;;;0.52;0.10;;;;;;;;;;5033573;28;20160;-65
2021/12/31 12:56:36;;;;;;;0.75;0.20;;;;;;;;;;5033564;28;20024;-65
2021/12/31 12:59:02;;;;;;;1.48;0.13;;;;;;;;;;5033374;28;20025;-65
2021/12/31 13:01:34;;;;;;;0.35;0.10;;;;;;;;;;5033495;28;20025;-65
2021/12/31 13:04:00;;;;;;;0.93;0.20;;;;;;;;;;5033336;28;20472;-64
2021/12/31 13:06:25;;;;;;;0.75;0.15;;;;;;;;;;5033149;28;20088;-65
2021/12/31 13:09:06;;;;;;;0.70;0.20;;;;;;;;;;5033372;28;20067;-65
2021/12/31 13:11:32;;;;;;;0.30;0.20;;;;;;;;;;5033333;28;20056;-65
2021/12/31 13:13:57;;;;;;;0.63;0.25;;;;;;;;;;5031813;28;20408;-65
2021/12/31 13:16:22;;;;;;;0.77;0.10;;;;;;;;;;5033229;28;20025;-65
2021/12/31 13:18:55;;;;;;;1.63;0.17;;;;;;;;;;5032910;28;20064;-66
2021/12/31 13:21:21;;;;;;;0.25;0.08;;;;;;;;;;5033388;28;20021;-65
2021/12/31 13:23:51;;;;;;;0.82;0.10;;;;;;;;;;5032872;28;20083;-65
2021/12/31 13:26:17;;;;;;;0.90;0.40;;;;;;;;;;5033079;28;20032;-65
2021/12/31 13:28:42;;;;;;;0.90;0.10;;;;;;;;;;5032800;28;20017;-65
2021/12/31 13:31:10;;;;;;;0.30;0.10;;;;;;;;;;5032804;28;20027;-65
2021/12/31 13:33:46;;;;;;;0.30;0.00;;;;;;;;;;5032952;28;20329;-65
2021/12/31 13:36:17;;;;;;;0.60;0.28;;;;;;;;;;5032800;28;20029;-65
2021/12/31 13:39:00;;;;;;;0.32;0.17;;;;;;;;;;5032692;28;20461;-65
2021/12/31 13:41:29;;;;;;;0.20;0.20;;;;;;;;;;5032764;28;20052;-64
2021/12/31 13:43:58;;;;;;;1.08;0.28;;;;;;;;;;5031273;28;20056;-65
2021/12/31 13:46:33;;;;;;;1.52;0.20;;;;;;;;;;5032640;28;20064;-65
2021/12/31 13:49:06;;;;;;;0.30;0.10;;;;;;;;;;5032712;28;20556;-66
2021/12/31 13:51:32;;;;;;;0.30;0.00;;;;;;;;;;5032146;28;20017;-66
2021/12/31 13:53:57;;;;;;;1.08;0.20;;;;;;;;;;5032444;28;20067;-66
2021/12/31 13:56:32;;;;;;;0.47;0.10;;;;;;;;;;5031382;28;20025;-66
2021/12/31 13:58:57;;;;;;;0.60;0.30;;;;;;;;;;5032345;28;20075;-65
2021/12/31 14:01:23;;;;;;;1.63;0.13;;;;;;;;;;5032395;28;20021;-65
2021/12/31 14:04:07;;;;;;;0.55;0.22;;;;;;;;;;5030828;28;20026;-65
2021/12/31 14:06:32;;;;;;;0.73;0.20;;;;;;;;;;5032326;28;20037;-65
2021/12/31 14:08:58;;;;;;;0.30;0.17;;;;;;;;;;5032159;28;20021;-65
2021/12/31 14:11:23;;;;;;;0.20;0.20;;;;;;;;;;5032300;28;20068;-64
2021/12/31 14:13:48;;;;;;;1.03;0.20;;;;;;;;;;5032185;28;20266;-65
2021/12/31 14:16:13;;;;;;;0.13;0.00;;;;;;;;;;5032327;28;20333;-65
2021/12/31 14:18:38;;;;;;;1.17;0.20;;;;;;;;;;5032163;28;20017;-64
2021/12/31 14:21:04;;;;;;;1.60;0.30;;;;;;;;;;5032071;28;20718;-65
2021/12/31 14:23:29;;;;;;;1.48;0.35;;;;;;;;;;5032497;28;20286;-65
2021/12/31 14:25:54;;;;;;;0.30;0.10;;;;;;;;;;5032024;28;20104;-65
2021/12/31 14:28:19;;;;;;;1.13;0.50;;;;;;;;;;5032146;28;20343;-65
2021/12/31 14:30:45;;;;;;;0.30;0.13;;;;;;;;;;5032061;28;20247;-65
2021/12/31 14:33:12;;;;;;;0.60;0.40;;;;;;;;;;5032279;28;20022;-65
2021/12/31 14:35:40;;;;;;;0.40;0.20;;;;;;;;;;5032178;28;20022;-66
2021/12/31 14:38:10;;;;;;;0.20;0.10;;;;;;;;;;5032059;28;20024;-65
2021/12/31 14:40:37;;;;;;;0.38;0.10;;;;;;;;;;5032564;28;20451;-65
2021/12/31 14:43:02;;;;;;;0.20;0.20;;;;;;;;;;5032213;28;20053;-66
2021/12/31 14:45:28;;;;;;;1.65;0.25;;;;;;;;;;5030705;28;20369;-65